South Fort Myers, Florida
Current Conditions -  °F | °C
As of 3:53 PM on Tuesday 25 Nov 2014 (Local Time) from KFMY Reporting Station
Broken Clouds Broken Clouds  
Wind Chill: 83°   Ceiling: 6000
Heat Index: 89°   Visibility: 10mi
Dew Point: 74°   Wind: 13mph
Humidity: 74%   Direction: 210°SSW
Pressure: 29.89"   Gusts: 23mph
Location:  26.6372°N, 81.8725°W
Report Text: KFMY 252053Z 21011G20KT 10SM SCT050 BKN060 28/23 A2989 RMK AO2 SLP124 T02830233 55012
Loading
Personal Weather Stations






























Interactive Weather Map New forecast layout! Learn more

10-Day Weather Forecast

Advertisements
Track Severe Weather on mobile